sensor_id;sensor_type;location;lat;lon;timestamp;P1;durP1;ratioP1;P2;durP2;ratioP2
23590;SDS011;11973;52.098;7.582;2023-05-03T03:46:00;4.78;;;4.53;;
23590;SDS011;11973;52.098;7.582;2023-05-03T03:48:26;4.43;;;4.10;;
23590;SDS011;11973;52.098;7.582;2023-05-03T03:50:52;5.32;;;4.88;;
23590;SDS011;11973;52.098;7.582;2023-05-03T03:53:22;4.45;;;4.15;;
23590;SDS011;11973;52.098;7.582;2023-05-03T03:55:48;4.15;;;4.05;;
23590;SDS011;11973;52.098;7.582;2023-05-03T03:58:16;4.28;;;4.07;;
23590;SDS011;11973;52.098;7.582;2023-05-03T04:00:41;4.28;;;4.07;;
23590;SDS011;11973;52.098;7.582;2023-05-03T04:03:13;4.85;;;4.55;;
23590;SDS011;11973;52.098;7.582;2023-05-03T04:05:40;5.40;;;4.95;;
23590;SDS011;11973;52.098;7.582;2023-05-03T04:08:05;5.13;;;4.80;;
23590;SDS011;11973;52.098;7.582;2023-05-03T04:10:33;6.07;;;5.05;;
23590;SDS011;11973;52.098;7.582;2023-05-03T04:12:59;5.18;;;4.82;;
23590;SDS011;11973;52.098;7.582;2023-05-03T04:15:25;4.90;;;4.60;;
23590;SDS011;11973;52.098;7.582;2023-05-03T04:17:53;5.38;;;5.07;;
23590;SDS011;11973;52.098;7.582;2023-05-03T04:20:18;7.57;;;5.38;;
23590;SDS011;11973;52.098;7.582;2023-05-03T04:22:48;4.63;;;4.43;;
23590;SDS011;11973;52.098;7.582;2023-05-03T04:25:16;5.20;;;4.93;;
23590;SDS011;11973;52.098;7.582;2023-05-03T04:27:45;5.10;;;4.90;;
23590;SDS011;11973;52.098;7.582;2023-05-03T04:30:12;5.70;;;4.93;;
23590;SDS011;11973;52.098;7.582;2023-05-03T04:32:40;4.50;;;4.30;;
23590;SDS011;11973;52.098;7.582;2023-05-03T04:35:09;5.13;;;4.72;;
23590;SDS011;11973;52.098;7.582;2023-05-03T04:37:38;4.57;;;4.28;;
23590;SDS011;11973;52.098;7.582;2023-05-03T04:40:07;5.50;;;5.28;;
23590;SDS011;11973;52.098;7.582;2023-05-03T04:42:38;5.50;;;5.03;;
23590;SDS011;11973;52.098;7.582;2023-05-03T04:45:04;5.28;;;5.07;;
23590;SDS011;11973;52.098;7.582;2023-05-03T04:47:31;5.35;;;5.05;;
23590;SDS011;11973;52.098;7.582;2023-05-03T04:49:57;6.18;;;5.82;;
23590;SDS011;11973;52.098;7.582;2023-05-03T04:52:24;5.30;;;5.15;;
23590;SDS011;11973;52.098;7.582;2023-05-03T04:54:52;5.80;;;5.30;;
23590;SDS011;11973;52.098;7.582;2023-05-03T04:57:19;5.90;;;5.57;;
23590;SDS011;11973;52.098;7.582;2023-05-03T04:59:45;6.10;;;5.90;;
23590;SDS011;11973;52.098;7.582;2023-05-03T05:02:11;14.73;;;13.05;;
23590;SDS011;11973;52.098;7.582;2023-05-03T05:04:37;6.57;;;6.10;;
23590;SDS011;11973;52.098;7.582;2023-05-03T05:07:03;6.75;;;6.18;;
23590;SDS011;11973;52.098;7.582;2023-05-03T05:09:31;6.63;;;6.25;;
23590;SDS011;11973;52.098;7.582;2023-05-03T05:11:58;6.45;;;5.80;;
23590;SDS011;11973;52.098;7.582;2023-05-03T05:14:31;6.50;;;6.20;;
23590;SDS011;11973;52.098;7.582;2023-05-03T05:16:57;6.40;;;6.00;;
23590;SDS011;11973;52.098;7.582;2023-05-03T05:19:24;6.45;;;6.18;;
23590;SDS011;11973;52.098;7.582;2023-05-03T05:21:50;6.43;;;5.90;;
23590;SDS011;11973;52.098;7.582;2023-05-03T05:24:18;6.82;;;6.30;;
23590;SDS011;11973;52.098;7.582;2023-05-03T05:26:44;6.80;;;6.40;;
23590;SDS011;11973;52.098;7.582;2023-05-03T05:29:12;6.10;;;5.80;;
23590;SDS011;11973;52.098;7.582;2023-05-03T05:31:38;6.30;;;5.90;;
23590;SDS011;11973;52.098;7.582;2023-05-03T05:34:05;6.30;;;6.10;;
23590;SDS011;11973;52.098;7.582;2023-05-03T05:36:31;7.03;;;6.40;;
23590;SDS011;11973;52.098;7.582;2023-05-03T05:38:58;6.63;;;6.03;;
23590;SDS011;11973;52.098;7.582;2023-05-03T05:41:24;7.00;;;6.32;;
23590;SDS011;11973;52.098;7.582;2023-05-03T05:43:50;6.60;;;6.10;;
23590;SDS011;11973;52.098;7.582;2023-05-03T05:46:16;7.07;;;6.55;;
23590;SDS011;11973;52.098;7.582;2023-05-03T05:48:45;6.10;;;5.90;;
23590;SDS011;11973;52.098;7.582;2023-05-03T05:51:11;7.07;;;6.43;;
23590;SDS011;11973;52.098;7.582;2023-05-03T05:53:37;6.43;;;5.85;;
23590;SDS011;11973;52.098;7.582;2023-05-03T05:56:03;6.40;;;5.78;;
23590;SDS011;11973;52.098;7.582;2023-05-03T05:58:31;6.90;;;6.20;;
23590;SDS011;11973;52.098;7.582;2023-05-03T06:00:58;6.50;;;6.10;;
23590;SDS011;11973;52.098;7.582;2023-05-03T06:03:27;6.72;;;6.30;;
23590;SDS011;11973;52.098;7.582;2023-05-03T06:05:53;6.88;;;6.38;;
23590;SDS011;11973;52.098;7.582;2023-05-03T06:08:19;7.13;;;6.53;;
23590;SDS011;11973;52.098;7.582;2023-05-03T06:10:45;6.68;;;6.05;;
23590;SDS011;11973;52.098;7.582;2023-05-03T06:13:11;6.60;;;6.15;;
23590;SDS011;11973;52.098;7.582;2023-05-03T06:15:37;6.82;;;6.05;;
23590;SDS011;11973;52.098;7.582;2023-05-03T06:18:02;6.07;;;5.68;;
23590;SDS011;11973;52.098;7.582;2023-05-03T06:20:28;5.68;;;5.28;;
23590;SDS011;11973;52.098;7.582;2023-05-03T06:22:55;5.43;;;5.03;;
23590;SDS011;11973;52.098;7.582;2023-05-03T06:25:21;5.35;;;5.03;;
23590;SDS011;11973;52.098;7.582;2023-05-03T06:27:48;5.47;;;5.18;;
23590;SDS011;11973;52.098;7.582;2023-05-03T06:30:16;5.32;;;4.90;;
23590;SDS011;11973;52.098;7.582;2023-05-03T06:32:45;5.35;;;5.05;;
23590;SDS011;11973;52.098;7.582;2023-05-03T06:35:11;4.90;;;4.65;;
23590;SDS011;11973;52.098;7.582;2023-05-03T06:37:38;4.60;;;4.40;;
23590;SDS011;11973;52.098;7.582;2023-05-03T06:40:05;5.05;;;4.75;;
23590;SDS011;11973;52.098;7.582;2023-05-03T06:42:31;4.95;;;4.75;;
23590;SDS011;11973;52.098;7.582;2023-05-03T06:45:18;4.30;;;4.10;;
23590;SDS011;11973;52.098;7.582;2023-05-03T06:47:44;4.75;;;4.40;;
23590;SDS011;11973;52.098;7.582;2023-05-03T06:50:10;4.68;;;4.28;;
23590;SDS011;11973;52.098;7.582;2023-05-03T06:52:36;4.15;;;3.95;;
23590;SDS011;11973;52.098;7.582;2023-05-03T06:55:02;4.47;;;4.07;;
23590;SDS011;11973;52.098;7.582;2023-05-03T06:57:28;4.00;;;3.88;;
23590;SDS011;11973;52.098;7.582;2023-05-03T06:59:54;3.97;;;3.78;;
23590;SDS011;11973;52.098;7.582;2023-05-03T07:02:20;4.43;;;4.03;;
23590;SDS011;11973;52.098;7.582;2023-05-03T07:04:46;4.32;;;3.97;;
23590;SDS011;11973;52.098;7.582;2023-05-03T07:07:12;4.32;;;3.90;;
23590;SDS011;11973;52.098;7.582;2023-05-03T07:09:38;4.10;;;3.83;;
23590;SDS011;11973;52.098;7.582;2023-05-03T07:12:03;3.65;;;3.40;;
23590;SDS011;11973;52.098;7.582;2023-05-03T07:14:29;3.80;;;3.63;;
23590;SDS011;11973;52.098;7.582;2023-05-03T07:16:55;2.30;;;2.20;;
23590;SDS011;11973;52.098;7.582;2023-05-03T07:19:21;3.08;;;2.40;;
23590;SDS011;11973;52.098;7.582;2023-05-03T07:21:47;3.25;;;2.45;;
23590;SDS011;11973;52.098;7.582;2023-05-03T07:24:13;2.38;;;2.28;;
23590;SDS011;11973;52.098;7.582;2023-05-03T07:26:38;3.97;;;2.40;;
23590;SDS011;11973;52.098;7.582;2023-05-03T07:29:04;3.40;;;2.03;;
23590;SDS011;11973;52.098;7.582;2023-05-03T07:31:30;2.13;;;2.03;;
23590;SDS011;11973;52.098;7.582;2023-05-03T07:33:56;3.38;;;2.20;;
23590;SDS011;11973;52.098;7.582;2023-05-03T07:36:22;4.35;;;2.03;;
23590;SDS011;11973;52.098;7.582;2023-05-03T07:38:47;2.30;;;1.58;;
23590;SDS011;11973;52.098;7.582;2023-05-03T07:41:13;1.50;;;1.30;;
23590;SDS011;11973;52.098;7.582;2023-05-03T07:43:39;1.27;;;1.00;;
23590;SDS011;11973;52.098;7.582;2023-05-03T07:46:04;1.50;;;1.38;;
23590;SDS011;11973;52.098;7.582;2023-05-03T07:48:30;2.50;;;1.48;;
23590;SDS011;11973;52.098;7.582;2023-05-03T07:50:56;1.98;;;1.20;;
23590;SDS011;11973;52.098;7.582;2023-05-03T07:53:21;1.05;;;0.85;;
23590;SDS011;11973;52.098;7.582;2023-05-03T07:55:47;2.50;;;1.00;;
23590;SDS011;11973;52.098;7.582;2023-05-03T07:58:13;0.98;;;0.98;;
23590;SDS011;11973;52.098;7.582;2023-05-03T08:00:39;1.35;;;1.25;;
23590;SDS011;11973;52.098;7.582;2023-05-03T08:03:04;0.85;;;0.77;;
23590;SDS011;11973;52.098;7.582;2023-05-03T08:05:30;2.38;;;0.80;;
23590;SDS011;11973;52.098;7.582;2023-05-03T08:07:56;2.88;;;1.17;;
23590;SDS011;11973;52.098;7.582;2023-05-03T08:10:22;0.90;;;0.90;;
23590;SDS011;11973;52.098;7.582;2023-05-03T08:12:47;3.67;;;1.20;;
23590;SDS011;11973;52.098;7.582;2023-05-03T08:15:13;0.98;;;0.90;;
23590;SDS011;11973;52.098;7.582;2023-05-03T08:17:43;0.95;;;0.90;;
23590;SDS011;11973;52.098;7.582;2023-05-03T08:20:10;1.27;;;1.08;;
23590;SDS011;11973;52.098;7.582;2023-05-03T08:22:37;1.17;;;0.98;;
23590;SDS011;11973;52.098;7.582;2023-05-03T08:25:06;1.00;;;0.90;;
23590;SDS011;11973;52.098;7.582;2023-05-03T08:27:32;1.52;;;1.30;;
23590;SDS011;11973;52.098;7.582;2023-05-03T08:29:58;0.77;;;0.77;;
23590;SDS011;11973;52.098;7.582;2023-05-03T08:32:28;3.13;;;1.23;;
23590;SDS011;11973;52.098;7.582;2023-05-03T08:34:54;3.28;;;1.20;;
23590;SDS011;11973;52.098;7.582;2023-05-03T08:37:21;2.53;;;1.00;;
23590;SDS011;11973;52.098;7.582;2023-05-03T08:39:47;1.52;;;0.90;;
23590;SDS011;11973;52.098;7.582;2023-05-03T08:42:13;1.33;;;1.23;;
23590;SDS011;11973;52.098;7.582;2023-05-03T08:44:46;1.00;;;1.00;;
23590;SDS011;11973;52.098;7.582;2023-05-03T08:47:13;0.90;;;0.90;;
23590;SDS011;11973;52.098;7.582;2023-05-03T08:49:41;1.05;;;1.02;;
23590;SDS011;11973;52.098;7.582;2023-05-03T08:52:08;1.60;;;1.10;;
23590;SDS011;11973;52.098;7.582;2023-05-03T08:54:36;3.22;;;1.00;;
23590;SDS011;11973;52.098;7.582;2023-05-03T08:57:02;0.90;;;0.90;;
23590;SDS011;11973;52.098;7.582;2023-05-03T08:59:28;1.00;;;1.00;;
23590;SDS011;11973;52.098;7.582;2023-05-03T09:01:54;1.10;;;1.10;;
23590;SDS011;11973;52.098;7.582;2023-05-03T09:04:28;1.33;;;1.10;;
23590;SDS011;11973;52.098;7.582;2023-05-03T09:07:07;1.98;;;1.00;;
23590;SDS011;11973;52.098;7.582;2023-05-03T09:09:34;1.30;;;1.20;;
23590;SDS011;11973;52.098;7.582;2023-05-03T09:12:00;1.65;;;1.08;;
23590;SDS011;11973;52.098;7.582;2023-05-03T09:14:27;2.50;;;1.33;;
23590;SDS011;11973;52.098;7.582;2023-05-03T09:16:53;2.28;;;1.08;;
23590;SDS011;11973;52.098;7.582;2023-05-03T09:19:18;1.75;;;1.30;;
23590;SDS011;11973;52.098;7.582;2023-05-03T09:21:45;1.45;;;1.38;;
23590;SDS011;11973;52.098;7.582;2023-05-03T09:24:12;1.23;;;1.20;;
23590;SDS011;11973;52.098;7.582;2023-05-03T09:26:39;3.10;;;1.45;;
23590;SDS011;11973;52.098;7.582;2023-05-03T09:29:06;1.65;;;1.42;;
23590;SDS011;11973;52.098;7.582;2023-05-03T09:31:33;1.95;;;1.65;;
23590;SDS011;11973;52.098;7.582;2023-05-03T09:33:59;1.27;;;1.27;;
23590;SDS011;11973;52.098;7.582;2023-05-03T09:36:26;2.20;;;1.30;;
23590;SDS011;11973;52.098;7.582;2023-05-03T09:38:52;2.15;;;1.25;;
23590;SDS011;11973;52.098;7.582;2023-05-03T09:41:25;3.22;;;1.67;;
23590;SDS011;11973;52.098;7.582;2023-05-03T09:43:56;1.40;;;1.30;;
23590;SDS011;11973;52.098;7.582;2023-05-03T09:46:27;3.80;;;1.70;;
23590;SDS011;11973;52.098;7.582;2023-05-03T09:48:54;1.98;;;1.70;;
23590;SDS011;11973;52.098;7.582;2023-05-03T09:51:22;2.40;;;1.50;;
23590;SDS011;11973;52.098;7.582;2023-05-03T09:53:48;1.80;;;1.70;;
23590;SDS011;11973;52.098;7.582;2023-05-03T09:56:15;2.33;;;1.67;;
23590;SDS011;11973;52.098;7.582;2023-05-03T09:58:41;2.15;;;1.95;;
23590;SDS011;11973;52.098;7.582;2023-05-03T10:01:08;1.60;;;1.60;;
23590;SDS011;11973;52.098;7.582;2023-05-03T10:03:41;2.88;;;1.83;;
23590;SDS011;11973;52.098;7.582;2023-05-03T10:08:59;4.25;;;2.10;;
23590;SDS011;11973;52.098;7.582;2023-05-03T10:11:29;1.92;;;1.80;;
23590;SDS011;11973;52.098;7.582;2023-05-03T10:13:58;2.75;;;1.65;;
23590;SDS011;11973;52.098;7.582;2023-05-03T10:16:26;3.08;;;1.50;;
23590;SDS011;11973;52.098;7.582;2023-05-03T10:18:58;1.65;;;1.65;;
23590;SDS011;11973;52.098;7.582;2023-05-03T10:24:32;1.92;;;1.83;;
23590;SDS011;11973;52.098;7.582;2023-05-03T10:26:59;3.40;;;1.60;;
23590;SDS011;11973;52.098;7.582;2023-05-03T10:32:01;2.30;;;1.80;;
23590;SDS011;11973;52.098;7.582;2023-05-03T10:34:34;4.65;;;2.03;;
23590;SDS011;11973;52.098;7.582;2023-05-03T10:37:07;2.63;;;2.30;;
23590;SDS011;11973;52.098;7.582;2023-05-03T10:39:35;2.00;;;1.90;;
23590;SDS011;11973;52.098;7.582;2023-05-03T10:42:05;2.30;;;2.13;;
23590;SDS011;11973;52.098;7.582;2023-05-03T10:44:39;2.05;;;1.95;;
23590;SDS011;11973;52.098;7.582;2023-05-03T10:47:16;2.05;;;1.80;;
23590;SDS011;11973;52.098;7.582;2023-05-03T10:49:43;4.05;;;2.08;;
23590;SDS011;11973;52.098;7.582;2023-05-03T10:55:00;2.40;;;2.17;;
23590;SDS011;11973;52.098;7.582;2023-05-03T10:57:30;3.38;;;1.85;;
23590;SDS011;11973;52.098;7.582;2023-05-03T10:59:57;2.25;;;1.77;;
23590;SDS011;11973;52.098;7.582;2023-05-03T11:02:27;2.05;;;1.70;;
23590;SDS011;11973;52.098;7.582;2023-05-03T11:04:58;1.92;;;1.83;;
23590;SDS011;11973;52.098;7.582;2023-05-03T11:07:29;1.63;;;1.63;;
23590;SDS011;11973;52.098;7.582;2023-05-03T11:09:55;2.17;;;1.98;;
23590;SDS011;11973;52.098;7.582;2023-05-03T11:12:21;2.03;;;1.92;;
23590;SDS011;11973;52.098;7.582;2023-05-03T11:14:50;2.33;;;2.13;;
23590;SDS011;11973;52.098;7.582;2023-05-03T11:17:16;2.15;;;2.05;;
23590;SDS011;11973;52.098;7.582;2023-05-03T11:19:42;2.10;;;2.00;;
23590;SDS011;11973;52.098;7.582;2023-05-03T11:22:08;2.45;;;2.13;;
23590;SDS011;11973;52.098;7.582;2023-05-03T11:24:36;2.08;;;1.80;;
23590;SDS011;11973;52.098;7.582;2023-05-03T11:27:02;2.15;;;2.05;;
23590;SDS011;11973;52.098;7.582;2023-05-03T11:29:27;2.55;;;2.20;;
23590;SDS011;11973;52.098;7.582;2023-05-03T11:31:54;3.10;;;1.83;;
23590;SDS011;11973;52.098;7.582;2023-05-03T11:34:20;2.55;;;2.35;;
23590;SDS011;11973;52.098;7.582;2023-05-03T11:36:45;2.40;;;2.20;;
23590;SDS011;11973;52.098;7.582;2023-05-03T11:39:13;2.50;;;2.17;;
23590;SDS011;11973;52.098;7.582;2023-05-03T11:41:39;2.38;;;2.10;;
23590;SDS011;11973;52.098;7.582;2023-05-03T11:44:06;1.92;;;1.83;;
23590;SDS011;11973;52.098;7.582;2023-05-03T11:46:33;2.80;;;2.42;;
23590;SDS011;11973;52.098;7.582;2023-05-03T11:49:01;2.20;;;2.03;;
23590;SDS011;11973;52.098;7.582;2023-05-03T11:51:27;2.13;;;2.10;;
23590;SDS011;11973;52.098;7.582;2023-05-03T11:53:53;2.25;;;2.20;;
23590;SDS011;11973;52.098;7.582;2023-05-03T11:56:19;2.28;;;1.92;;
23590;SDS011;11973;52.098;7.582;2023-05-03T11:58:50;4.88;;;2.42;;
23590;SDS011;11973;52.098;7.582;2023-05-03T12:01:24;2.20;;;2.10;;
23590;SDS011;11973;52.098;7.582;2023-05-03T12:03:55;2.33;;;2.13;;
23590;SDS011;11973;52.098;7.582;2023-05-03T12:06:23;2.70;;;2.38;;
23590;SDS011;11973;52.098;7.582;2023-05-03T12:08:49;2.53;;;2.53;;
23590;SDS011;11973;52.098;7.582;2023-05-03T12:11:15;2.53;;;2.20;;
23590;SDS011;11973;52.098;7.582;2023-05-03T12:13:41;2.60;;;2.25;;
23590;SDS011;11973;52.098;7.582;2023-05-03T12:16:07;2.70;;;2.58;;
23590;SDS011;11973;52.098;7.582;2023-05-03T12:18:44;6.22;;;2.38;;
23590;SDS011;11973;52.098;7.582;2023-05-03T12:21:09;2.58;;;2.45;;
23590;SDS011;11973;52.098;7.582;2023-05-03T12:23:36;2.78;;;2.60;;
23590;SDS011;11973;52.098;7.582;2023-05-03T12:26:02;3.03;;;2.78;;
23590;SDS011;11973;52.098;7.582;2023-05-03T12:28:28;3.05;;;2.85;;
23590;SDS011;11973;52.098;7.582;2023-05-03T12:30:54;3.90;;;3.10;;
23590;SDS011;11973;52.098;7.582;2023-05-03T12:33:19;4.75;;;2.30;;
23590;SDS011;11973;52.098;7.582;2023-05-03T12:35:45;2.60;;;2.50;;
23590;SDS011;11973;52.098;7.582;2023-05-03T12:38:11;3.13;;;2.80;;
23590;SDS011;11973;52.098;7.582;2023-05-03T12:40:37;2.75;;;2.55;;
23590;SDS011;11973;52.098;7.582;2023-05-03T12:43:04;2.67;;;2.55;;
23590;SDS011;11973;52.098;7.582;2023-05-03T12:45:30;2.22;;;2.05;;
23590;SDS011;11973;52.098;7.582;2023-05-03T12:47:56;2.45;;;2.25;;
23590;SDS011;11973;52.098;7.582;2023-05-03T12:50:22;3.08;;;2.20;;
23590;SDS011;11973;52.098;7.582;2023-05-03T12:52:49;2.22;;;2.13;;
23590;SDS011;11973;52.098;7.582;2023-05-03T12:55:14;2.55;;;2.40;;
23590;SDS011;11973;52.098;7.582;2023-05-03T12:57:41;2.58;;;2.42;;
23590;SDS011;11973;52.098;7.582;2023-05-03T13:00:07;2.38;;;2.25;;
23590;SDS011;11973;52.098;7.582;2023-05-03T13:02:35;2.88;;;2.78;;
23590;SDS011;11973;52.098;7.582;2023-05-03T13:05:00;2.85;;;2.60;;
23590;SDS011;11973;52.098;7.582;2023-05-03T13:07:27;2.33;;;2.33;;
23590;SDS011;11973;52.098;7.582;2023-05-03T13:09:53;2.60;;;2.40;;
23590;SDS011;11973;52.098;7.582;2023-05-03T13:12:20;2.70;;;2.50;;
23590;SDS011;11973;52.098;7.582;2023-05-03T13:14:49;3.17;;;2.35;;
23590;SDS011;11973;52.098;7.582;2023-05-03T13:17:17;2.33;;;2.20;;
23590;SDS011;11973;52.098;7.582;2023-05-03T13:19:46;2.78;;;2.53;;
23590;SDS011;11973;52.098;7.582;2023-05-03T13:22:13;2.70;;;2.50;;
23590;SDS011;11973;52.098;7.582;2023-05-03T13:24:40;2.60;;;2.50;;
23590;SDS011;11973;52.098;7.582;2023-05-03T13:27:07;4.15;;;2.70;;
23590;SDS011;11973;52.098;7.582;2023-05-03T13:29:35;4.20;;;3.00;;
23590;SDS011;11973;52.098;7.582;2023-05-03T13:32:02;2.80;;;2.58;;
23590;SDS011;11973;52.098;7.582;2023-05-03T13:34:27;2.78;;;2.58;;
23590;SDS011;11973;52.098;7.582;2023-05-03T13:36:54;2.60;;;2.50;;
23590;SDS011;11973;52.098;7.582;2023-05-03T13:39:21;2.38;;;2.33;;
23590;SDS011;11973;52.098;7.582;2023-05-03T13:41:47;2.40;;;2.30;;
23590;SDS011;11973;52.098;7.582;2023-05-03T13:44:13;2.40;;;2.30;;
23590;SDS011;11973;52.098;7.582;2023-05-03T13:46:39;2.60;;;2.50;;
23590;SDS011;11973;52.098;7.582;2023-05-03T13:49:05;3.80;;;2.67;;
23590;SDS011;11973;52.098;7.582;2023-05-03T13:51:32;2.80;;;2.60;;
23590;SDS011;11973;52.098;7.582;2023-05-03T13:53:59;2.75;;;2.65;;
23590;SDS011;11973;52.098;7.582;2023-05-03T13:56:25;5.50;;;2.67;;
23590;SDS011;11973;52.098;7.582;2023-05-03T13:58:52;2.63;;;2.53;;
23590;SDS011;11973;52.098;7.582;2023-05-03T14:01:19;2.85;;;2.70;;
23590;SDS011;11973;52.098;7.582;2023-05-03T14:03:45;3.10;;;2.80;;
23590;SDS011;11973;52.098;7.582;2023-05-03T14:06:11;2.92;;;2.80;;
23590;SDS011;11973;52.098;7.582;2023-05-03T14:08:37;3.20;;;2.95;;
23590;SDS011;11973;52.098;7.582;2023-05-03T14:11:03;2.92;;;2.72;;
23590;SDS011;11973;52.098;7.582;2023-05-03T14:13:35;4.55;;;2.67;;
23590;SDS011;11973;52.098;7.582;2023-05-03T14:16:01;2.80;;;2.78;;
23590;SDS011;11973;52.098;7.582;2023-05-03T14:18:27;3.20;;;2.50;;
23590;SDS011;11973;52.098;7.582;2023-05-03T14:20:52;3.03;;;2.83;;
23590;SDS011;11973;52.098;7.582;2023-05-03T14:23:18;3.80;;;3.25;;
23590;SDS011;11973;52.098;7.582;2023-05-03T14:25:44;2.97;;;2.80;;
23590;SDS011;11973;52.098;7.582;2023-05-03T14:28:09;2.75;;;2.50;;
23590;SDS011;11973;52.098;7.582;2023-05-03T14:30:35;2.15;;;2.00;;
23590;SDS011;11973;52.098;7.582;2023-05-03T14:33:01;2.63;;;2.42;;
23590;SDS011;11973;52.098;7.582;2023-05-03T14:35:27;2.40;;;2.30;;
23590;SDS011;11973;52.098;7.582;2023-05-03T14:37:53;2.90;;;2.80;;
23590;SDS011;11973;52.098;7.582;2023-05-03T14:40:19;2.50;;;2.30;;
23590;SDS011;11973;52.098;7.582;2023-05-03T14:42:45;2.70;;;2.55;;
23590;SDS011;11973;52.098;7.582;2023-05-03T14:45:11;2.28;;;2.17;;
23590;SDS011;11973;52.098;7.582;2023-05-03T14:47:41;2.83;;;2.72;;
23590;SDS011;11973;52.098;7.582;2023-05-03T14:50:07;5.50;;;3.00;;
23590;SDS011;11973;52.098;7.582;2023-05-03T14:52:33;2.72;;;2.60;;
23590;SDS011;11973;52.098;7.582;2023-05-03T14:55:00;3.75;;;2.45;;
23590;SDS011;11973;52.098;7.582;2023-05-03T14:57:26;2.60;;;2.60;;
23590;SDS011;11973;52.098;7.582;2023-05-03T14:59:51;2.63;;;2.63;;
23590;SDS011;11973;52.098;7.582;2023-05-03T15:02:17;3.33;;;2.72;;
23590;SDS011;11973;52.098;7.582;2023-05-03T15:04:43;2.75;;;2.55;;
23590;SDS011;11973;52.098;7.582;2023-05-03T15:07:09;2.40;;;2.30;;
23590;SDS011;11973;52.098;7.582;2023-05-03T15:09:44;2.75;;;2.50;;
23590;SDS011;11973;52.098;7.582;2023-05-03T15:12:10;2.20;;;2.20;;
23590;SDS011;11973;52.098;7.582;2023-05-03T15:14:36;2.78;;;2.58;;
23590;SDS011;11973;52.098;7.582;2023-05-03T15:17:02;2.80;;;2.70;;
23590;SDS011;11973;52.098;7.582;2023-05-03T15:19:27;2.92;;;2.72;;
23590;SDS011;11973;52.098;7.582;2023-05-03T15:21:53;2.47;;;2.30;;
23590;SDS011;11973;52.098;7.582;2023-05-03T15:24:19;2.70;;;2.50;;
23590;SDS011;11973;52.098;7.582;2023-05-03T15:26:46;2.92;;;2.72;;
23590;SDS011;11973;52.098;7.582;2023-05-03T15:29:12;2.47;;;2.38;;
23590;SDS011;11973;52.098;7.582;2023-05-03T15:31:39;3.53;;;2.60;;
23590;SDS011;11973;52.098;7.582;2023-05-03T15:34:05;2.60;;;2.35;;
23590;SDS011;11973;52.098;7.582;2023-05-03T15:36:31;2.20;;;2.20;;
23590;SDS011;11973;52.098;7.582;2023-05-03T15:38:57;4.85;;;2.90;;
23590;SDS011;11973;52.098;7.582;2023-05-03T15:41:23;2.83;;;2.63;;
23590;SDS011;11973;52.098;7.582;2023-05-03T15:43:50;2.85;;;2.60;;
23590;SDS011;11973;52.098;7.582;2023-05-03T15:46:15;3.10;;;2.90;;
23590;SDS011;11973;52.098;7.582;2023-05-03T15:48:41;2.50;;;2.25;;
23590;SDS011;11973;52.098;7.582;2023-05-03T15:51:07;2.50;;;2.50;;
23590;SDS011;11973;52.098;7.582;2023-05-03T15:53:32;3.13;;;2.88;;
23590;SDS011;11973;52.098;7.582;2023-05-03T15:55:58;2.88;;;2.72;;
23590;SDS011;11973;52.098;7.582;2023-05-03T15:58:26;3.92;;;2.60;;
23590;SDS011;11973;52.098;7.582;2023-05-03T16:00:56;2.45;;;2.45;;
23590;SDS011;11973;52.098;7.582;2023-05-03T16:03:23;2.97;;;2.78;;
23590;SDS011;11973;52.098;7.582;2023-05-03T16:05:49;2.95;;;2.65;;
23590;SDS011;11973;52.098;7.582;2023-05-03T16:08:17;2.75;;;2.50;;
23590;SDS011;11973;52.098;7.582;2023-05-03T16:10:46;3.50;;;3.20;;
23590;SDS011;11973;52.098;7.582;2023-05-03T16:13:12;2.50;;;2.47;;
23590;SDS011;11973;52.098;7.582;2023-05-03T16:15:38;2.40;;;2.40;;
23590;SDS011;11973;52.098;7.582;2023-05-03T16:18:04;2.70;;;2.50;;
23590;SDS011;11973;52.098;7.582;2023-05-03T16:20:30;2.20;;;2.20;;
23590;SDS011;11973;52.098;7.582;2023-05-03T16:22:56;2.53;;;2.42;;
23590;SDS011;11973;52.098;7.582;2023-05-03T16:25:22;2.63;;;2.47;;
23590;SDS011;11973;52.098;7.582;2023-05-03T16:27:48;2.28;;;2.17;;
23590;SDS011;11973;52.098;7.582;2023-05-03T16:30:14;2.85;;;2.65;;
23590;SDS011;11973;52.098;7.582;2023-05-03T16:32:40;3.05;;;2.97;;
23590;SDS011;11973;52.098;7.582;2023-05-03T16:35:07;3.53;;;3.30;;
23590;SDS011;11973;52.098;7.582;2023-05-03T16:37:33;2.50;;;2.30;;
23590;SDS011;11973;52.098;7.582;2023-05-03T16:40:04;2.67;;;2.47;;
23590;SDS011;11973;52.098;7.582;2023-05-03T16:42:37;2.03;;;2.03;;
23590;SDS011;11973;52.098;7.582;2023-05-03T16:45:03;2.40;;;2.40;;
23590;SDS011;11973;52.098;7.582;2023-05-03T16:47:32;2.60;;;2.40;;
23590;SDS011;11973;52.098;7.582;2023-05-03T16:49:59;2.63;;;2.50;;
23590;SDS011;11973;52.098;7.582;2023-05-03T16:52:25;2.50;;;2.40;;
23590;SDS011;11973;52.098;7.582;2023-05-03T16:54:51;2.28;;;2.28;;
23590;SDS011;11973;52.098;7.582;2023-05-03T16:57:17;2.63;;;2.53;;
23590;SDS011;11973;52.098;7.582;2023-05-03T16:59:43;3.10;;;2.90;;
23590;SDS011;11973;52.098;7.582;2023-05-03T17:02:08;2.85;;;2.75;;
23590;SDS011;11973;52.098;7.582;2023-05-03T17:04:35;2.67;;;2.58;;
23590;SDS011;11973;52.098;7.582;2023-05-03T17:07:00;3.17;;;2.97;;
23590;SDS011;11973;52.098;7.582;2023-05-03T17:09:26;5.10;;;2.80;;
23590;SDS011;11973;52.098;7.582;2023-05-03T17:11:52;2.90;;;2.70;;
23590;SDS011;11973;52.098;7.582;2023-05-03T17:14:18;2.70;;;2.63;;
23590;SDS011;11973;52.098;7.582;2023-05-03T17:16:44;3.25;;;3.05;;
23590;SDS011;11973;52.098;7.582;2023-05-03T17:19:10;2.83;;;2.60;;
23590;SDS011;11973;52.098;7.582;2023-05-03T17:21:36;3.03;;;2.92;;
23590;SDS011;11973;52.098;7.582;2023-05-03T17:24:02;3.55;;;2.83;;
23590;SDS011;11973;52.098;7.582;2023-05-03T17:26:28;3.00;;;2.83;;
23590;SDS011;11973;52.098;7.582;2023-05-03T17:28:55;4.63;;;2.75;;
23590;SDS011;11973;52.098;7.582;2023-05-03T17:31:21;4.43;;;2.90;;
23590;SDS011;11973;52.098;7.582;2023-05-03T17:33:46;3.42;;;3.22;;
23590;SDS011;11973;52.098;7.582;2023-05-03T17:36:12;3.00;;;2.90;;
23590;SDS011;11973;52.098;7.582;2023-05-03T17:38:38;3.60;;;3.42;;
23590;SDS011;11973;52.098;7.582;2023-05-03T17:41:04;3.55;;;3.22;;
23590;SDS011;11973;52.098;7.582;2023-05-03T17:43:32;3.40;;;3.10;;
23590;SDS011;11973;52.098;7.582;2023-05-03T17:46:07;3.70;;;3.60;;
23590;SDS011;11973;52.098;7.582;2023-05-03T17:48:38;3.75;;;3.45;;
23590;SDS011;11973;52.098;7.582;2023-05-03T17:51:08;3.45;;;3.38;;
23590;SDS011;11973;52.098;7.582;2023-05-03T17:53:37;3.88;;;3.67;;
23590;SDS011;11973;52.098;7.582;2023-05-03T17:56:04;3.50;;;3.40;;
23590;SDS011;11973;52.098;7.582;2023-05-03T17:58:37;4.13;;;3.80;;
23590;SDS011;11973;52.098;7.582;2023-05-03T18:01:05;3.75;;;3.47;;
23590;SDS011;11973;52.098;7.582;2023-05-03T18:03:38;4.43;;;3.95;;
23590;SDS011;11973;52.098;7.582;2023-05-03T18:06:18;4.63;;;4.15;;
23590;SDS011;11973;52.098;7.582;2023-05-03T18:08:43;3.78;;;3.63;;
23590;SDS011;11973;52.098;7.582;2023-05-03T18:11:09;4.15;;;3.75;;
23590;SDS011;11973;52.098;7.582;2023-05-03T18:13:35;3.55;;;3.45;;
23590;SDS011;11973;52.098;7.582;2023-05-03T18:16:04;3.63;;;3.47;;
23590;SDS011;11973;52.098;7.582;2023-05-03T18:18:34;4.00;;;3.78;;
23590;SDS011;11973;52.098;7.582;2023-05-03T18:21:00;4.25;;;3.95;;
23590;SDS011;11973;52.098;7.582;2023-05-03T18:23:27;3.30;;;3.28;;
23590;SDS011;11973;52.098;7.582;2023-05-03T18:25:55;3.72;;;3.63;;
23590;SDS011;11973;52.098;7.582;2023-05-03T18:28:21;3.95;;;3.75;;
23590;SDS011;11973;52.098;7.582;2023-05-03T18:30:50;3.38;;;3.17;;
23590;SDS011;11973;52.098;7.582;2023-05-03T18:33:17;3.17;;;3.05;;
23590;SDS011;11973;52.098;7.582;2023-05-03T18:35:49;4.28;;;3.92;;
23590;SDS011;11973;52.098;7.582;2023-05-03T18:38:16;4.40;;;4.05;;
23590;SDS011;11973;52.098;7.582;2023-05-03T18:40:43;3.47;;;3.38;;
23590;SDS011;11973;52.098;7.582;2023-05-03T18:43:10;4.82;;;4.53;;